This is the latest recevied weather packets stored in our database for station/object N2ZVN. If no packets are shown the sender has not sent any weather packets the latest 1 day(s).
| Time | Temp. | Humidity | Pressure | Rain* | Wind** | Luminosity | Snow |
|---|---|---|---|---|---|---|---|
| 1778031266 | 8.33° C | 96% | 1010.5 hPa | 1.27 mm | - | 0 W/m² | - |
| 1778030962 | 8.33° C | 96% | 1010.4 hPa | 1.27 mm | - | 0 W/m² | - |
| 1778030658 | 8.33° C | 96% | 1010.4 hPa | 1.78 mm | - | 0 W/m² | - |
| 1778030355 | 8.33° C | 96% | 1010.6 hPa | 3.05 mm | - | 0 W/m² | - |
| 1778029749 | 8.33° C | 96% | 1010.7 hPa | 3.05 mm | - | 0 W/m² | - |
| 1778029448 | 8.33° C | 96% | 1010.6 hPa | 4.83 mm | - | 0 W/m² | - |
| 1778028537 | 8.33° C | 95% | 1010.3 hPa | 3.05 mm | - | 0 W/m² | - |
| 1778028235 | 8.33° C | 95% | 1010.2 hPa | 3.05 mm | - | 0 W/m² | - |
| 1778027931 | 8.33° C | 95% | 1010.3 hPa | 3.05 mm | - | 0 W/m² | - |
| 1778027324 | 8.33° C | 95% | 1010.3 hPa | 3.05 mm | - | 0 W/m² | - |
| 1778027020 | 8.33° C | 95% | 1010.1 hPa | 3.05 mm | - | 0 W/m² | - |
| 1778026716 | 8.33° C | 95% | 1010.3 hPa | 1.78 mm | - | 0 W/m² | - |
| 1778026413 | 8.33° C | 94% | 1010.2 hPa | 1.27 mm | - | 0 W/m² | - |
| 1778026110 | 8.33° C | 94% | 1010 hPa | 1.27 mm | - | 1 W/m² | - |
| 1778024899 | 7.78° C | 93% | 1009.4 hPa | 1.27 mm | - | 4 W/m² | - |
| 1778024597 | 7.78° C | 93% | 1009.5 hPa | 1.78 mm | - | 4 W/m² | - |
| 1778022781 | 7.78° C | 92% | 1009.8 hPa | 3.05 mm | - | 8 W/m² | - |
| 1778021872 | 7.78° C | 92% | 1009.9 hPa | 3.05 mm | - | 10 W/m² | - |
| 1778020962 | 8.33° C | 90% | 1009.7 hPa | 3.05 mm | - | 14 W/m² | - |
| 1778020659 | 8.33° C | 89% | 1009.4 hPa | 3.05 mm | - | 16 W/m² | - |
| 1778020051 | 8.33° C | 88% | 1009.3 hPa | 1.78 mm | - | 21 W/m² | - |
| 1778018234 | 8.89° C | 80% | 1009 hPa | 1.27 mm | - | 38 W/m² | - |
| 1778017629 | 10° C | 76% | 1009.2 hPa | 1.78 mm | - | 33 W/m² | - |
| 1778016114 | 11.67° C | 68% | 1008.5 hPa | 0 mm | - | 28 W/m² | - |
| 1778015811 | 12.22° C | 65% | 1008.2 hPa | 0 mm | - | 30 W/m² | - |
* Rain latest hour (hover to see other rain measurements)
** Current wind speed in m/s (hover to see current wind gust speed)